Aviation Digital Data Service (ADDS)

Output produced by METARs form (0119 UTC 06 December 2019)
found at http://www.aviationweather.gov/metar/data/
 
METAR text: KMYV 060053Z AUTO 32004KT 10SM CLR 13/10 A3007 RMK AO2 SLP187 T01280100
Conditions at: KMYV (MARYSVILLE , CA, US) observed 0053 UTC 06 December 2019
Temperature: 12.8°C (55°F)
Dewpoint: 10.0°C (50°F) [RH = 83%]
Pressure (altimeter): 30.07 inches Hg (1018.4 mb)
[Sea-level pressure: 1018.7 mb]
Winds: from the NW (320 degrees) at 5 MPH (4 knots; 2.1 m/s)
Visibility: 10 or more miles (16+ km)
Ceiling: at least 12,000 feet AGL
Clouds: sky clear below 12,000 feet AGL
Weather: automated observation with no human augmentation;
there may or may not be significant weather present at this time

METAR text: KMYV 052353Z AUTO 28006KT 10SM CLR 14/11 A3007 RMK AO2 SLP186 T01440106 10167 20128 55005
Conditions at: KMYV (MARYSVILLE , CA, US) observed 2353 UTC 05 December 2019
Temperature: 14.4°C (58°F)
Dewpoint: 10.6°C (51°F) [RH = 78%]
Pressure (altimeter): 30.07 inches Hg (1018.4 mb)
[Sea-level pressure: 1018.6 mb]
Winds: from the W (280 degrees) at 7 MPH (6 knots; 3.1 m/s)
Visibility: 10 or more miles (16+ km)
Ceiling: at least 12,000 feet AGL
Clouds: sky clear below 12,000 feet AGL
Weather: automated observation with no human augmentation;
there may or may not be significant weather present at this time

METAR text: KMYV 052253Z AUTO 24005KT 10SM CLR 16/11 A3007 RMK AO2 SLP184 T01610111
Conditions at: KMYV (MARYSVILLE , CA, US) observed 2253 UTC 05 December 2019
Temperature: 16.1°C (61°F)
Dewpoint: 11.1°C (52°F) [RH = 72%]
Pressure (altimeter): 30.07 inches Hg (1018.4 mb)
[Sea-level pressure: 1018.4 mb]
Winds: from the WSW (240 degrees) at 6 MPH (5 knots; 2.6 m/s)
Visibility: 10 or more miles (16+ km)
Ceiling: at least 12,000 feet AGL
Clouds: sky clear below 12,000 feet AGL
Weather: automated observation with no human augmentation;
there may or may not be significant weather present at this time

METAR text: KMYV 052153Z AUTO 21004KT 10SM CLR 16/11 A3007 RMK AO2 SLP185 T01610111
Conditions at: KMYV (MARYSVILLE , CA, US) observed 2153 UTC 05 December 2019
Temperature: 16.1°C (61°F)
Dewpoint: 11.1°C (52°F) [RH = 72%]
Pressure (altimeter): 30.07 inches Hg (1018.4 mb)
[Sea-level pressure: 1018.5 mb]
Winds: from the SSW (210 degrees) at 5 MPH (4 knots; 2.1 m/s)
Visibility: 10 or more miles (16+ km)
Ceiling: at least 12,000 feet AGL
Clouds: sky clear below 12,000 feet AGL
Weather: automated observation with no human augmentation;
there may or may not be significant weather present at this time

METAR text: KMYV 052053Z AUTO 19005KT 10SM CLR 16/11 A3009 RMK AO2 SLP191 T01610106 58015
Conditions at: KMYV (MARYSVILLE , CA, US) observed 2053 UTC 05 December 2019
Temperature: 16.1°C (61°F)
Dewpoint: 10.6°C (51°F) [RH = 70%]
Pressure (altimeter): 30.09 inches Hg (1019.0 mb)
[Sea-level pressure: 1019.1 mb]
Winds: from the S (190 degrees) at 6 MPH (5 knots; 2.6 m/s)
Visibility: 10 or more miles (16+ km)
Ceiling: at least 12,000 feet AGL
Clouds: sky clear below 12,000 feet AGL
Weather: automated observation with no human augmentation;
there may or may not be significant weather present at this time

METAR text: KMYV 051953Z AUTO VRB03KT 10SM CLR 16/11 A3011 RMK AO2 SLP199 T01610111
Conditions at: KMYV (MARYSVILLE , CA, US) observed 1953 UTC 05 December 2019
Temperature: 16.1°C (61°F)
Dewpoint: 11.1°C (52°F) [RH = 72%]
Pressure (altimeter): 30.11 inches Hg (1019.7 mb)
[Sea-level pressure: 1019.9 mb]
Winds: variable direction winds at 3 MPH (3 knots; 1.5 m/s)
Visibility: 10 or more miles (16+ km)
Ceiling: at least 12,000 feet AGL
Clouds: sky clear below 12,000 feet AGL
Weather: automated observation with no human augmentation;
there may or may not be significant weather present at this time

METAR text: KMYV 051853Z AUTO 00000KT 10SM BKN030 14/12 A3013 RMK AO2 SLP205 T01440117
Conditions at: KMYV (MARYSVILLE , CA, US) observed 1853 UTC 05 December 2019
Temperature: 14.4°C (58°F)
Dewpoint: 11.7°C (53°F) [RH = 84%]
Pressure (altimeter): 30.13 inches Hg (1020.4 mb)
[Sea-level pressure: 1020.5 mb]
Winds: calm
Visibility: 10 or more miles (16+ km)
Ceiling: 3000 feet AGL
Clouds: broken clouds at 3000 feet AGL
Weather: automated observation with no human augmentation;
there may or may not be significant weather present at this time

METAR text: KMYV 051753Z AUTO 11003KT 10SM BKN032 13/11 A3013 RMK AO2 SLP206 T01330106 10139 20106 52020
Conditions at: KMYV (MARYSVILLE , CA, US) observed 1753 UTC 05 December 2019
Temperature: 13.3°C (56°F)
Dewpoint: 10.6°C (51°F) [RH = 84%]
Pressure (altimeter): 30.13 inches Hg (1020.4 mb)
[Sea-level pressure: 1020.6 mb]
Winds: from the ESE (110 degrees) at 3 MPH (3 knots; 1.5 m/s)
Visibility: 10 or more miles (16+ km)
Ceiling: 3200 feet AGL
Clouds: broken clouds at 3200 feet AGL
Weather: automated observation with no human augmentation;
there may or may not be significant weather present at this time

METAR text: KMYV 051653Z AUTO 00000KT 5SM BR CLR 12/11 A3011 RMK AO2 SLP201 T01220111
Conditions at: KMYV (MARYSVILLE , CA, US) observed 1653 UTC 05 December 2019
Temperature: 12.2°C (54°F)
Dewpoint: 11.1°C (52°F) [RH = 93%]
Pressure (altimeter): 30.11 inches Hg (1019.7 mb)
[Sea-level pressure: 1020.1 mb]
Winds: calm
Visibility: 5 miles ( 8 km)
Ceiling: at least 12,000 feet AGL
Clouds: sky clear below 12,000 feet AGL
Weather: BR  (mist)

METAR text: KMYV 051553Z AUTO 02003KT 3SM BR CLR 11/10 A3009 RMK AO2 SLP192 T01060100
Conditions at: KMYV (MARYSVILLE , CA, US) observed 1553 UTC 05 December 2019
Temperature: 10.6°C (51°F)
Dewpoint: 10.0°C (50°F) [RH = 96%]
Pressure (altimeter): 30.09 inches Hg (1019.0 mb)
[Sea-level pressure: 1019.2 mb]
Winds: from the NNE (20 degrees) at 3 MPH (3 knots; 1.5 m/s)
Visibility: 3 miles ( 5 km)
Ceiling: at least 12,000 feet AGL
Clouds: sky clear below 12,000 feet AGL
Weather: BR  (mist)

METAR text: KMYV 051512Z AUTO 01003KT 4SM BR SCT029 BKN075 11/09 A3008 RMK AO2 T01060094
Conditions at: KMYV (MARYSVILLE , CA, US) observed 1512 UTC 05 December 2019
Temperature: 10.6°C (51°F)
Dewpoint: 9.4°C (49°F) [RH = 92%]
Pressure (altimeter): 30.08 inches Hg (1018.7 mb)
Winds: from the N (10 degrees) at 3 MPH (3 knots; 1.5 m/s)
Visibility: 4 miles ( 6 km)
Ceiling: 7500 feet AGL
Clouds: scattered clouds at 2900 feet AGL
broken clouds at 7500 feet AGL
Weather: BR  (mist)

METAR text: KMYV 051453Z AUTO 01003KT 6SM BR OVC029 11/10 A3007 RMK AO2 SLP186 T01110100 51010
Conditions at: KMYV (MARYSVILLE , CA, US) observed 1453 UTC 05 December 2019
Temperature: 11.1°C (52°F)
Dewpoint: 10.0°C (50°F) [RH = 93%]
Pressure (altimeter): 30.07 inches Hg (1018.4 mb)
[Sea-level pressure: 1018.6 mb]
Winds: from the N (10 degrees) at 3 MPH (3 knots; 1.5 m/s)
Visibility: 6 miles (10 km)
Ceiling: 2900 feet AGL
Clouds: overcast cloud deck at 2900 feet AGL
Weather: BR  (mist)

METAR text: KMYV 051406Z AUTO 00000KT 6SM BR OVC030 11/11 A3006 RMK AO2 T01110106
Conditions at: KMYV (MARYSVILLE , CA, US) observed 1406 UTC 05 December 2019
Temperature: 11.1°C (52°F)
Dewpoint: 10.6°C (51°F) [RH = 97%]
Pressure (altimeter): 30.06 inches Hg (1018.0 mb)
Winds: calm
Visibility: 6 miles (10 km)
Ceiling: 3000 feet AGL
Clouds: overcast cloud deck at 3000 feet AGL
Weather: BR  (mist)

METAR text: KMYV 051353Z AUTO 34003KT 5SM BR OVC029 11/11 A3006 RMK AO2 SLP181 T01110106
Conditions at: KMYV (MARYSVILLE , CA, US) observed 1353 UTC 05 December 2019
Temperature: 11.1°C (52°F)
Dewpoint: 10.6°C (51°F) [RH = 97%]
Pressure (altimeter): 30.06 inches Hg (1018.0 mb)
[Sea-level pressure: 1018.1 mb]
Winds: from the NNW (340 degrees) at 3 MPH (3 knots; 1.5 m/s)
Visibility: 5 miles ( 8 km)
Ceiling: 2900 feet AGL
Clouds: overcast cloud deck at 2900 feet AGL
Weather: BR  (mist)

METAR text: KMYV 051326Z AUTO 00000KT 5SM BR BKN029 OVC038 11/11 A3005 RMK AO2 T01110106
Conditions at: KMYV (MARYSVILLE , CA, US) observed 1326 UTC 05 December 2019
Temperature: 11.1°C (52°F)
Dewpoint: 10.6°C (51°F) [RH = 97%]
Pressure (altimeter): 30.05 inches Hg (1017.7 mb)
Winds: calm
Visibility: 5 miles ( 8 km)
Ceiling: 2900 feet AGL
Clouds: broken clouds at 2900 feet AGL
overcast cloud deck at 3800 feet AGL
Weather: BR  (mist)

METAR text: KMYV 051253Z AUTO 34003KT 6SM BR OVC035 11/11 A3004 RMK AO2 SLP176 T01110106
Conditions at: KMYV (MARYSVILLE , CA, US) observed 1253 UTC 05 December 2019
Temperature: 11.1°C (52°F)
Dewpoint: 10.6°C (51°F) [RH = 97%]
Pressure (altimeter): 30.04 inches Hg (1017.4 mb)
[Sea-level pressure: 1017.6 mb]
Winds: from the NNW (340 degrees) at 3 MPH (3 knots; 1.5 m/s)
Visibility: 6 miles (10 km)
Ceiling: 3500 feet AGL
Clouds: overcast cloud deck at 3500 feet AGL
Weather: BR  (mist)

METAR text: KMYV 051233Z AUTO 01003KT 6SM BR OVC031 11/11 A3004 RMK AO2 T01110106
Conditions at: KMYV (MARYSVILLE , CA, US) observed 1233 UTC 05 December 2019
Temperature: 11.1°C (52°F)
Dewpoint: 10.6°C (51°F) [RH = 97%]
Pressure (altimeter): 30.04 inches Hg (1017.4 mb)
Winds: from the N (10 degrees) at 3 MPH (3 knots; 1.5 m/s)
Visibility: 6 miles (10 km)
Ceiling: 3100 feet AGL
Clouds: overcast cloud deck at 3100 feet AGL
Weather: BR  (mist)

METAR text: KMYV 051153Z AUTO 01003KT 7SM SCT021 OVC027 11/11 A3004 RMK AO2 SLP174 70018 T01110106 10111 20106 51007
Conditions at: KMYV (MARYSVILLE , CA, US) observed 1153 UTC 05 December 2019
Temperature: 11.1°C (52°F)
Dewpoint: 10.6°C (51°F) [RH = 97%]
Pressure (altimeter): 30.04 inches Hg (1017.4 mb)
[Sea-level pressure: 1017.4 mb]
Winds: from the N (10 degrees) at 3 MPH (3 knots; 1.5 m/s)
Visibility: 7 miles (11 km)
Ceiling: 2700 feet AGL
Clouds: scattered clouds at 2100 feet AGL
overcast cloud deck at 2700 feet AGL
Weather: automated observation with no human augmentation;
there may or may not be significant weather present at this time

METAR text: KMYV 051053Z AUTO 34003KT 6SM BR OVC018 11/11 A3003 RMK AO2 SLP173 T01110106
Conditions at: KMYV (MARYSVILLE , CA, US) observed 1053 UTC 05 December 2019
Temperature: 11.1°C (52°F)
Dewpoint: 10.6°C (51°F) [RH = 97%]
Pressure (altimeter): 30.03 inches Hg (1017.0 mb)
[Sea-level pressure: 1017.3 mb]
Winds: from the NNW (340 degrees) at 3 MPH (3 knots; 1.5 m/s)
Visibility: 6 miles (10 km)
Ceiling: 1800 feet AGL
Clouds: overcast cloud deck at 1800 feet AGL
Weather: BR  (mist)

METAR text: KMYV 050953Z AUTO 34004KT 5SM BR OVC018 11/11 A3003 RMK AO2 SLP171 T01110106
Conditions at: KMYV (MARYSVILLE , CA, US) observed 0953 UTC 05 December 2019
Temperature: 11.1°C (52°F)
Dewpoint: 10.6°C (51°F) [RH = 97%]
Pressure (altimeter): 30.03 inches Hg (1017.0 mb)
[Sea-level pressure: 1017.1 mb]
Winds: from the NNW (340 degrees) at 5 MPH (4 knots; 2.1 m/s)
Visibility: 5 miles ( 8 km)
Ceiling: 1800 feet AGL
Clouds: overcast cloud deck at 1800 feet AGL
Weather: BR  (mist)

METAR text: KMYV 050915Z AUTO 00000KT 5SM BR BKN022 BKN028 OVC033 11/11 A3002 RMK AO2 T01110106
Conditions at: KMYV (MARYSVILLE , CA, US) observed 0915 UTC 05 December 2019
Temperature: 11.1°C (52°F)
Dewpoint: 10.6°C (51°F) [RH = 97%]
Pressure (altimeter): 30.02 inches Hg (1016.7 mb)
Winds: calm
Visibility: 5 miles ( 8 km)
Ceiling: 2200 feet AGL
Clouds: broken clouds at 2200 feet AGL
broken clouds at 2800 feet AGL
overcast cloud deck at 3300 feet AGL
Weather: BR  (mist)

METAR text: KMYV 050853Z AUTO 36003KT 5SM BR SCT022 OVC032 11/11 A3002 RMK AO2 SLP167 T01110106 51011
Conditions at: KMYV (MARYSVILLE , CA, US) observed 0853 UTC 05 December 2019
Temperature: 11.1°C (52°F)
Dewpoint: 10.6°C (51°F) [RH = 97%]
Pressure (altimeter): 30.02 inches Hg (1016.7 mb)
[Sea-level pressure: 1016.7 mb]
Winds: from the N (360 degrees) at 3 MPH (3 knots; 1.5 m/s)
Visibility: 5 miles ( 8 km)
Ceiling: 3200 feet AGL
Clouds: scattered clouds at 2200 feet AGL
overcast cloud deck at 3200 feet AGL
Weather: BR  (mist)

METAR text: KMYV 050753Z AUTO 00000KT 5SM BR OVC028 11/10 A3001 RMK AO2 SLP165 T01060100 401220083
Conditions at: KMYV (MARYSVILLE , CA, US) observed 0753 UTC 05 December 2019
Temperature: 10.6°C (51°F)
Dewpoint: 10.0°C (50°F) [RH = 96%]
Pressure (altimeter): 30.01 inches Hg (1016.3 mb)
[Sea-level pressure: 1016.5 mb]
Winds: calm
Visibility: 5 miles ( 8 km)
Ceiling: 2800 feet AGL
Clouds: overcast cloud deck at 2800 feet AGL
Weather: BR  (mist)

METAR text: KMYV 050731Z AUTO 00000KT 6SM BR BKN029 OVC034 11/09 A3001 RMK AO2 T01060094
Conditions at: KMYV (MARYSVILLE , CA, US) observed 0731 UTC 05 December 2019
Temperature: 10.6°C (51°F)
Dewpoint: 9.4°C (49°F) [RH = 92%]
Pressure (altimeter): 30.01 inches Hg (1016.3 mb)
Winds: calm
Visibility: 6 miles (10 km)
Ceiling: 2900 feet AGL
Clouds: broken clouds at 2900 feet AGL
overcast cloud deck at 3400 feet AGL
Weather: BR  (mist)

METAR text: KMYV 050653Z AUTO 00000KT 9SM OVC033 11/10 A3000 RMK AO2 SLP162 T01110100
Conditions at: KMYV (MARYSVILLE , CA, US) observed 0653 UTC 05 December 2019
Temperature: 11.1°C (52°F)
Dewpoint: 10.0°C (50°F) [RH = 93%]
Pressure (altimeter): 30.00 inches Hg (1016.0 mb)
[Sea-level pressure: 1016.2 mb]
Winds: calm
Visibility: 9 miles (14 km)
Ceiling: 3300 feet AGL
Clouds: overcast cloud deck at 3300 feet AGL
Weather: automated observation with no human augmentation;
there may or may not be significant weather present at this time

METAR text: KMYV 050553Z AUTO 00000KT 5SM BR OVC095 11/11 A2998 RMK AO2 SLP156 60002 T01060106 10117 20106 51018
Conditions at: KMYV (MARYSVILLE , CA, US) observed 0553 UTC 05 December 2019
Temperature: 10.6°C (51°F)
Dewpoint: 10.6°C (51°F) [RH = 100%]
Pressure (altimeter): 29.98 inches Hg (1015.3 mb)
[Sea-level pressure: 1015.6 mb]
Winds: calm
Visibility: 5 miles ( 8 km)
Ceiling: 9500 feet AGL
Clouds: overcast cloud deck at 9500 feet AGL
Weather: BR  (mist)

METAR text: KMYV 050453Z AUTO 10003KT 6SM BR BKN080 OVC100 11/10 A2997 RMK AO2 SLP152 T01110100
Conditions at: KMYV (MARYSVILLE , CA, US) observed 0453 UTC 05 December 2019
Temperature: 11.1°C (52°F)
Dewpoint: 10.0°C (50°F) [RH = 93%]
Pressure (altimeter): 29.97 inches Hg (1015.0 mb)
[Sea-level pressure: 1015.2 mb]
Winds: from the E (100 degrees) at 3 MPH (3 knots; 1.5 m/s)
Visibility: 6 miles (10 km)
Ceiling: 8000 feet AGL
Clouds: broken clouds at 8000 feet AGL
overcast cloud deck at 10000 feet AGL
Weather: BR  (mist)

METAR text: KMYV 050353Z AUTO 00000KT 4SM BR BKN032 OVC041 11/11 A2995 RMK AO2 SLP144 T01110106
Conditions at: KMYV (MARYSVILLE , CA, US) observed 0353 UTC 05 December 2019
Temperature: 11.1°C (52°F)
Dewpoint: 10.6°C (51°F) [RH = 97%]
Pressure (altimeter): 29.95 inches Hg (1014.3 mb)
[Sea-level pressure: 1014.4 mb]
Winds: calm
Visibility: 4 miles ( 6 km)
Ceiling: 3200 feet AGL
Clouds: broken clouds at 3200 feet AGL
overcast cloud deck at 4100 feet AGL
Weather: BR  (mist)

METAR text: KMYV 050253Z AUTO 00000KT 4SM BR BKN033 OVC060 11/11 A2993 RMK AO2 RAE25 SLP138 P0000 60002 T01110106 53014
Conditions at: KMYV (MARYSVILLE , CA, US) observed 0253 UTC 05 December 2019
Temperature: 11.1°C (52°F)
Dewpoint: 10.6°C (51°F) [RH = 97%]
Pressure (altimeter): 29.93 inches Hg (1013.6 mb)
[Sea-level pressure: 1013.8 mb]
Winds: calm
Visibility: 4 miles ( 6 km)
Ceiling: 3300 feet AGL
Clouds: broken clouds at 3300 feet AGL
overcast cloud deck at 6000 feet AGL
Weather: BR  (mist)

METAR text: KMYV 050153Z AUTO 00000KT 4SM -RA BR FEW018 OVC036 11/11 A2991 RMK AO2 SLP132 P0002 T01110106
Conditions at: KMYV (MARYSVILLE , CA, US) observed 0153 UTC 05 December 2019
Temperature: 11.1°C (52°F)
Dewpoint: 10.6°C (51°F) [RH = 97%]
Pressure (altimeter): 29.91 inches Hg (1013.0 mb)
[Sea-level pressure: 1013.2 mb]
Winds: calm
Visibility: 4 miles ( 6 km)
Ceiling: 3600 feet AGL
Clouds: few clouds at 1800 feet AGL
overcast cloud deck at 3600 feet AGL
Weather: -RA BR  (light rain, mist)

METAR text: KMYV 050128Z AUTO 00000KT 4SM -RA BR FEW022 FEW027 OVC039 12/11 A2990 RMK AO2 P0001 T01170106
Conditions at: KMYV (MARYSVILLE , CA, US) observed 0128 UTC 05 December 2019
Temperature: 11.7°C (53°F)
Dewpoint: 10.6°C (51°F) [RH = 93%]
Pressure (altimeter): 29.90 inches Hg (1012.6 mb)
Winds: calm
Visibility: 4 miles ( 6 km)
Ceiling: 3900 feet AGL
Clouds: few clouds at 2200 feet AGL
few clouds at 2700 feet AGL
overcast cloud deck at 3900 feet AGL
Weather: -RA BR  (light rain, mist)

METAR text: KMYV 050053Z AUTO 00000KT 3SM -RA BR BKN023 BKN028 OVC036 12/11 A2989 RMK AO2 RAB46 SLP124 P0000 T01170106
Conditions at: KMYV (MARYSVILLE , CA, US) observed 0053 UTC 05 December 2019
Temperature: 11.7°C (53°F)
Dewpoint: 10.6°C (51°F) [RH = 93%]
Pressure (altimeter): 29.89 inches Hg (1012.3 mb)
[Sea-level pressure: 1012.4 mb]
Winds: calm
Visibility: 3 miles ( 5 km)
Ceiling: 2300 feet AGL
Clouds: broken clouds at 2300 feet AGL
broken clouds at 2800 feet AGL
overcast cloud deck at 3600 feet AGL
Weather: -RA BR  (light rain, mist)

METAR text: KMYV 050051Z AUTO 00000KT 3SM -RA BR BKN023 BKN028 OVC036 12/11 A2989 RMK AO2 RAB46 P0000
Conditions at: KMYV (MARYSVILLE , CA, US) observed 0051 UTC 05 December 2019
Temperature: 12.0°C (54°F)
Dewpoint: 11.0°C (52°F) [RH = 94%]
Pressure (altimeter): 29.89 inches Hg (1012.3 mb)
Winds: calm
Visibility: 3 miles ( 5 km)
Ceiling: 2300 feet AGL
Clouds: broken clouds at 2300 feet AGL
broken clouds at 2800 feet AGL
overcast cloud deck at 3600 feet AGL
Weather: -RA BR  (light rain, mist)

METAR text: KMYV 050019Z AUTO 00000KT 6SM BR SCT026 OVC038 12/11 A2988 RMK AO2 T01170106
Conditions at: KMYV (MARYSVILLE , CA, US) observed 0019 UTC 05 December 2019
Temperature: 11.7°C (53°F)
Dewpoint: 10.6°C (51°F) [RH = 93%]
Pressure (altimeter): 29.88 inches Hg (1011.9 mb)
Winds: calm
Visibility: 6 miles (10 km)
Ceiling: 3800 feet AGL
Clouds: scattered clouds at 2600 feet AGL
overcast cloud deck at 3800 feet AGL
Weather: BR  (mist)

METAR text: KMYV 042353Z AUTO 36003KT 6SM BR FEW009 OVC026 12/11 A2987 RMK AO2 RAE06 SLP120 P0000 60001 T01170106 10122 20106 53003
Conditions at: KMYV (MARYSVILLE , CA, US) observed 2353 UTC 04 December 2019
Temperature: 11.7°C (53°F)
Dewpoint: 10.6°C (51°F) [RH = 93%]
Pressure (altimeter): 29.87 inches Hg (1011.6 mb)
[Sea-level pressure: 1012.0 mb]
Winds: from the N (360 degrees) at 3 MPH (3 knots; 1.5 m/s)
Visibility: 6 miles (10 km)
Ceiling: 2600 feet AGL
Clouds: few clouds at 900 feet AGL
overcast cloud deck at 2600 feet AGL
Weather: BR  (mist)

METAR text: KMYV 042346Z AUTO 02003KT 6SM BR SCT009 OVC027 12/11 A2988 RMK AO2 RAE06 P0000 T01170106
Conditions at: KMYV (MARYSVILLE , CA, US) observed 2346 UTC 04 December 2019
Temperature: 11.7°C (53°F)
Dewpoint: 10.6°C (51°F) [RH = 93%]
Pressure (altimeter): 29.88 inches Hg (1011.9 mb)
Winds: from the NNE (20 degrees) at 3 MPH (3 knots; 1.5 m/s)
Visibility: 6 miles (10 km)
Ceiling: 2700 feet AGL
Clouds: scattered clouds at 900 feet AGL
overcast cloud deck at 2700 feet AGL
Weather: BR  (mist)

METAR text: KMYV 042318Z AUTO 00000KT 8SM BKN008 OVC030 12/11 A2987 RMK AO2 RAE06 CIG 005V009 P0000 T01170106
Conditions at: KMYV (MARYSVILLE , CA, US) observed 2318 UTC 04 December 2019
Temperature: 11.7°C (53°F)
Dewpoint: 10.6°C (51°F) [RH = 93%]
Pressure (altimeter): 29.87 inches Hg (1011.6 mb)
Winds: calm
Visibility: 8 miles (13 km)
Ceiling: 800 feet AGL
Clouds: broken clouds at 800 feet AGL
overcast cloud deck at 3000 feet AGL
Weather: automated observation with no human augmentation;
there may or may not be significant weather present at this time

METAR text: KMYV 042310Z AUTO 01003KT 7SM SCT006 OVC029 12/11 A2987 RMK AO2 RAE06 P0000 T01220106
Conditions at: KMYV (MARYSVILLE , CA, US) observed 2310 UTC 04 December 2019
Temperature: 12.2°C (54°F)
Dewpoint: 10.6°C (51°F) [RH = 90%]
Pressure (altimeter): 29.87 inches Hg (1011.6 mb)
Winds: from the N (10 degrees) at 3 MPH (3 knots; 1.5 m/s)
Visibility: 7 miles (11 km)
Ceiling: 2900 feet AGL
Clouds: scattered clouds at 600 feet AGL
overcast cloud deck at 2900 feet AGL
Weather: automated observation with no human augmentation;
there may or may not be significant weather present at this time

METAR text: KMYV 042300Z AUTO 36004KT 6SM -RA BR BKN005 OVC029 12/11 A2987 RMK AO2 P0000 T01170106
Conditions at: KMYV (MARYSVILLE , CA, US) observed 2300 UTC 04 December 2019
Temperature: 11.7°C (53°F)
Dewpoint: 10.6°C (51°F) [RH = 93%]
Pressure (altimeter): 29.87 inches Hg (1011.6 mb)
Winds: from the N (360 degrees) at 5 MPH (4 knots; 2.1 m/s)
Visibility: 6 miles (10 km)
Ceiling: 500 feet AGL
Clouds: broken clouds at 500 feet AGL
overcast cloud deck at 2900 feet AGL
Weather: -RA BR  (light rain, mist)

METAR text: KMYV 042253Z AUTO 01004KT 6SM -RA BR SCT005 OVC029 12/11 A2986 RMK AO2 RAB45 SLP115 P0000 T01170106
Conditions at: KMYV (MARYSVILLE , CA, US) observed 2253 UTC 04 December 2019
Temperature: 11.7°C (53°F)
Dewpoint: 10.6°C (51°F) [RH = 93%]
Pressure (altimeter): 29.86 inches Hg (1011.3 mb)
[Sea-level pressure: 1011.5 mb]
Winds: from the N (10 degrees) at 5 MPH (4 knots; 2.1 m/s)
Visibility: 6 miles (10 km)
Ceiling: 2900 feet AGL
Clouds: scattered clouds at 500 feet AGL
overcast cloud deck at 2900 feet AGL
Weather: -RA BR  (light rain, mist)

METAR text: KMYV 042217Z AUTO 00000KT 6SM BR SCT005 OVC028 12/11 A2986 RMK AO2 T01170111
Conditions at: KMYV (MARYSVILLE , CA, US) observed 2217 UTC 04 December 2019
Temperature: 11.7°C (53°F)
Dewpoint: 11.1°C (52°F) [RH = 96%]
Pressure (altimeter): 29.86 inches Hg (1011.3 mb)
Winds: calm
Visibility: 6 miles (10 km)
Ceiling: 2800 feet AGL
Clouds: scattered clouds at 500 feet AGL
overcast cloud deck at 2800 feet AGL
Weather: BR  (mist)

METAR text: KMYV 042153Z AUTO 34004KT 5SM BR OVC005 12/11 A2985 RMK AO2 SLP112 T01170106
Conditions at: KMYV (MARYSVILLE , CA, US) observed 2153 UTC 04 December 2019
Temperature: 11.7°C (53°F)
Dewpoint: 10.6°C (51°F) [RH = 93%]
Pressure (altimeter): 29.85 inches Hg (1010.9 mb)
[Sea-level pressure: 1011.2 mb]
Winds: from the NNW (340 degrees) at 5 MPH (4 knots; 2.1 m/s)
Visibility: 5 miles ( 8 km)
Ceiling: 500 feet AGL
Clouds: overcast cloud deck at 500 feet AGL
Weather: BR  (mist)

METAR text: KMYV 042144Z AUTO 31003KT 6SM BR BKN006 OVC027 12/11 A2985 RMK AO2 T01170106
Conditions at: KMYV (MARYSVILLE , CA, US) observed 2144 UTC 04 December 2019
Temperature: 11.7°C (53°F)
Dewpoint: 10.6°C (51°F) [RH = 93%]
Pressure (altimeter): 29.85 inches Hg (1010.9 mb)
Winds: from the NW (310 degrees) at 3 MPH (3 knots; 1.5 m/s)
Visibility: 6 miles (10 km)
Ceiling: 600 feet AGL
Clouds: broken clouds at 600 feet AGL
overcast cloud deck at 2700 feet AGL
Weather: BR  (mist)

METAR text: KMYV 042133Z AUTO 00000KT 6SM BR SCT006 OVC027 12/11 A2986 RMK AO2 T01170111
Conditions at: KMYV (MARYSVILLE , CA, US) observed 2133 UTC 04 December 2019
Temperature: 11.7°C (53°F)
Dewpoint: 11.1°C (52°F) [RH = 96%]
Pressure (altimeter): 29.86 inches Hg (1011.3 mb)
Winds: calm
Visibility: 6 miles (10 km)
Ceiling: 2700 feet AGL
Clouds: scattered clouds at 600 feet AGL
overcast cloud deck at 2700 feet AGL
Weather: BR  (mist)

METAR text: KMYV 042053Z AUTO 31005KT 6SM BR OVC027 12/11 A2987 RMK AO2 RAE05 SLP117 P0000 60001 T01170106 56020
Conditions at: KMYV (MARYSVILLE , CA, US) observed 2053 UTC 04 December 2019
Temperature: 11.7°C (53°F)
Dewpoint: 10.6°C (51°F) [RH = 93%]
Pressure (altimeter): 29.87 inches Hg (1011.6 mb)
[Sea-level pressure: 1011.7 mb]
Winds: from the NW (310 degrees) at 6 MPH (5 knots; 2.6 m/s)
Visibility: 6 miles (10 km)
Ceiling: 2700 feet AGL
Clouds: overcast cloud deck at 2700 feet AGL
Weather: BR  (mist)

METAR text: KMYV 042001Z AUTO 29005KT 6SM -RA BR SCT004 BKN026 OVC048 12/11 A2988 RMK AO2 P0000 T01170106
Conditions at: KMYV (MARYSVILLE , CA, US) observed 2001 UTC 04 December 2019
Temperature: 11.7°C (53°F)
Dewpoint: 10.6°C (51°F) [RH = 93%]
Pressure (altimeter): 29.88 inches Hg (1011.9 mb)
Winds: from the WNW (290 degrees) at 6 MPH (5 knots; 2.6 m/s)
Visibility: 6 miles (10 km)
Ceiling: 2600 feet AGL
Clouds: scattered clouds at 400 feet AGL
broken clouds at 2600 feet AGL
overcast cloud deck at 4800 feet AGL
Weather: -RA BR  (light rain, mist)

METAR text: KMYV 041953Z AUTO 31005KT 6SM -RA BR SCT004 BKN030 OVC048 11/11 A2988 RMK AO2 RAE1854B50 SLP122 P0000 T01110106
Conditions at: KMYV (MARYSVILLE , CA, US) observed 1953 UTC 04 December 2019
Temperature: 11.1°C (52°F)
Dewpoint: 10.6°C (51°F) [RH = 97%]
Pressure (altimeter): 29.88 inches Hg (1011.9 mb)
[Sea-level pressure: 1012.2 mb]
Winds: from the NW (310 degrees) at 6 MPH (5 knots; 2.6 m/s)
Visibility: 6 miles (10 km)
Ceiling: 3000 feet AGL
Clouds: scattered clouds at 400 feet AGL
broken clouds at 3000 feet AGL
overcast cloud deck at 4800 feet AGL
Weather: -RA BR  (light rain, mist)

METAR text: KMYV 041853Z AUTO 35006KT 5SM -RA BR BKN004 BKN049 OVC065 11/11 A2990 RMK AO2 SLP128 P0001 T01110106
Conditions at: KMYV (MARYSVILLE , CA, US) observed 1853 UTC 04 December 2019
Temperature: 11.1°C (52°F)
Dewpoint: 10.6°C (51°F) [RH = 97%]
Pressure (altimeter): 29.90 inches Hg (1012.6 mb)
[Sea-level pressure: 1012.8 mb]
Winds: from the N (350 degrees) at 7 MPH (6 knots; 3.1 m/s)
Visibility: 5 miles ( 8 km)
Ceiling: 400 feet AGL
Clouds: broken clouds at 400 feet AGL
broken clouds at 4900 feet AGL
overcast cloud deck at 6500 feet AGL
Weather: -RA BR  (light rain, mist)

METAR text: KMYV 041830Z AUTO 36006KT 5SM -RA BR BKN004 OVC070 11/10 A2992 RMK AO2 P0001 T01110100
Conditions at: KMYV (MARYSVILLE , CA, US) observed 1830 UTC 04 December 2019
Temperature: 11.1°C (52°F)
Dewpoint: 10.0°C (50°F) [RH = 93%]
Pressure (altimeter): 29.92 inches Hg (1013.3 mb)
Winds: from the N (360 degrees) at 7 MPH (6 knots; 3.1 m/s)
Visibility: 5 miles ( 8 km)
Ceiling: 400 feet AGL
Clouds: broken clouds at 400 feet AGL
overcast cloud deck at 7000 feet AGL
Weather: -RA BR  (light rain, mist)

METAR text: KMYV 041809Z AUTO 01006KT 4SM -RA BR FEW003 BKN070 OVC085 11/10 A2992 RMK AO2 P0000 T01110100
Conditions at: KMYV (MARYSVILLE , CA, US) observed 1809 UTC 04 December 2019
Temperature: 11.1°C (52°F)
Dewpoint: 10.0°C (50°F) [RH = 93%]
Pressure (altimeter): 29.92 inches Hg (1013.3 mb)
Winds: from the N (10 degrees) at 7 MPH (6 knots; 3.1 m/s)
Visibility: 4 miles ( 6 km)
Ceiling: 7000 feet AGL
Clouds: few clouds at 300 feet AGL
broken clouds at 7000 feet AGL
overcast cloud deck at 8500 feet AGL
Weather: -RA BR  (light rain, mist)

METAR text: KMYV 041753Z AUTO 01005KT 4SM -RA BR BKN075 OVC090 11/10 A2993 RMK AO2 SLP137 P0002 60015 T01110100 10111 20100 53007
Conditions at: KMYV (MARYSVILLE , CA, US) observed 1753 UTC 04 December 2019
Temperature: 11.1°C (52°F)
Dewpoint: 10.0°C (50°F) [RH = 93%]
Pressure (altimeter): 29.93 inches Hg (1013.6 mb)
[Sea-level pressure: 1013.7 mb]
Winds: from the N (10 degrees) at 6 MPH (5 knots; 2.6 m/s)
Visibility: 4 miles ( 6 km)
Ceiling: 7500 feet AGL
Clouds: broken clouds at 7500 feet AGL
overcast cloud deck at 9000 feet AGL
Weather: -RA BR  (light rain, mist)

METAR text: KMYV 041726Z AUTO 36003KT 3SM -RA BR FEW048 OVC080 11/10 A2992 RMK AO2 P0001 T01060100
Conditions at: KMYV (MARYSVILLE , CA, US) observed 1726 UTC 04 December 2019
Temperature: 10.6°C (51°F)
Dewpoint: 10.0°C (50°F) [RH = 96%]
Pressure (altimeter): 29.92 inches Hg (1013.3 mb)
Winds: from the N (360 degrees) at 3 MPH (3 knots; 1.5 m/s)
Visibility: 3 miles ( 5 km)
Ceiling: 8000 feet AGL
Clouds: few clouds at 4800 feet AGL
overcast cloud deck at 8000 feet AGL
Weather: -RA BR  (light rain, mist)

METAR text: KMYV 041653Z AUTO 33003KT 2SM -RA BR SCT050 OVC070 11/09 A2991 RMK AO2 SLP132 P0005 T01060094
Conditions at: KMYV (MARYSVILLE , CA, US) observed 1653 UTC 04 December 2019
Temperature: 10.6°C (51°F)
Dewpoint: 9.4°C (49°F) [RH = 92%]
Pressure (altimeter): 29.91 inches Hg (1013.0 mb)
[Sea-level pressure: 1013.2 mb]
Winds: from the NNW (330 degrees) at 3 MPH (3 knots; 1.5 m/s)
Visibility: 2.00 miles (3.22 km)
Ceiling: 7000 feet AGL
Clouds: scattered clouds at 5000 feet AGL
overcast cloud deck at 7000 feet AGL
Weather: -RA BR  (light rain, mist)

METAR text: KMYV 041553Z AUTO 00000KT 2SM -RA BR OVC065 10/09 A2990 RMK AO2 SLP129 P0006 T01000094 $
Conditions at: KMYV (MARYSVILLE , CA, US) observed 1553 UTC 04 December 2019
Temperature: 10.0°C (50°F)
Dewpoint: 9.4°C (49°F) [RH = 96%]
Pressure (altimeter): 29.90 inches Hg (1012.6 mb)
[Sea-level pressure: 1012.9 mb]
Winds: calm
Visibility: 2.00 miles (3.22 km)
Ceiling: 6500 feet AGL
Clouds: overcast cloud deck at 6500 feet AGL
Weather: -RA BR  (light rain, mist)
SOME DATA ABOVE MAY BE INACCURATE!!!
"$" is an indication the sensor requires maintenance

METAR text: KMYV 041549Z AUTO 00000KT 2SM -RA BR OVC065 10/09 A2990 RMK AO2 P0006 $
Conditions at: KMYV (MARYSVILLE , CA, US) observed 1549 UTC 04 December 2019
Temperature: 10.0°C (50°F)
Dewpoint: 9.0°C (48°F) [RH = 93%]
Pressure (altimeter): 29.90 inches Hg (1012.6 mb)
Winds: calm
Visibility: 2.00 miles (3.22 km)
Ceiling: 6500 feet AGL
Clouds: overcast cloud deck at 6500 feet AGL
Weather: -RA BR  (light rain, mist)
SOME DATA ABOVE MAY BE INACCURATE!!!
"$" is an indication the sensor requires maintenance

METAR text: KMYV 041523Z AUTO 00000KT 3SM -RA BR SCT002 BKN055 OVC070 10/10 A2990 RMK AO2 P0003 T01000100 $
Conditions at: KMYV (MARYSVILLE , CA, US) observed 1523 UTC 04 December 2019
Temperature: 10.0°C (50°F)
Dewpoint: 10.0°C (50°F) [RH = 100%]
Pressure (altimeter): 29.90 inches Hg (1012.6 mb)
Winds: calm
Visibility: 3 miles ( 5 km)
Ceiling: 5500 feet AGL
Clouds: scattered clouds at 200 feet AGL
broken clouds at 5500 feet AGL
overcast cloud deck at 7000 feet AGL
Weather: -RA BR  (light rain, mist)
SOME DATA ABOVE MAY BE INACCURATE!!!
"$" is an indication the sensor requires maintenance

METAR text: KMYV 041514Z AUTO 00000KT 2 1/2SM RA BR BKN002 OVC050 10/10 A2990 RMK AO2 P0003 T01000100 $
Conditions at: KMYV (MARYSVILLE , CA, US) observed 1514 UTC 04 December 2019
Temperature: 10.0°C (50°F)
Dewpoint: 10.0°C (50°F) [RH = 100%]
Pressure (altimeter): 29.90 inches Hg (1012.6 mb)
Winds: calm
Visibility: 2.50 miles (4.02 km)
Ceiling: 200 feet AGL
Clouds: broken clouds at 200 feet AGL
overcast cloud deck at 5000 feet AGL
Weather: RA BR  (moderate rain, mist)
SOME DATA ABOVE MAY BE INACCURATE!!!
"$" is an indication the sensor requires maintenance

METAR text: KMYV 041453Z AUTO 00000KT 3SM -RA BR BKN002 OVC070 10/10 A2990 RMK AO2 SLP128 P0002 60002 T01000100 56008 $
Conditions at: KMYV (MARYSVILLE , CA, US) observed 1453 UTC 04 December 2019
Temperature: 10.0°C (50°F)
Dewpoint: 10.0°C (50°F) [RH = 100%]
Pressure (altimeter): 29.90 inches Hg (1012.6 mb)
[Sea-level pressure: 1012.8 mb]
Winds: calm
Visibility: 3 miles ( 5 km)
Ceiling: 200 feet AGL
Clouds: broken clouds at 200 feet AGL
overcast cloud deck at 7000 feet AGL
Weather: -RA BR  (light rain, mist)
SOME DATA ABOVE MAY BE INACCURATE!!!
"$" is an indication the sensor requires maintenance

METAR text: KMYV 041446Z AUTO 00000KT 3SM -RA BR BKN002 BKN019 OVC070 10/10 A2989 RMK AO2 P0001 T01000100 $
Conditions at: KMYV (MARYSVILLE , CA, US) observed 1446 UTC 04 December 2019
Temperature: 10.0°C (50°F)
Dewpoint: 10.0°C (50°F) [RH = 100%]
Pressure (altimeter): 29.89 inches Hg (1012.3 mb)
Winds: calm
Visibility: 3 miles ( 5 km)
Ceiling: 200 feet AGL
Clouds: broken clouds at 200 feet AGL
broken clouds at 1900 feet AGL
overcast cloud deck at 7000 feet AGL
Weather: -RA BR  (light rain, mist)
SOME DATA ABOVE MAY BE INACCURATE!!!
"$" is an indication the sensor requires maintenance

METAR text: KMYV 041424Z AUTO 35005KT 3SM -RA BR FEW003 SCT017 OVC070 10/09 A2989 RMK AO2 P0001 T01000094 $
Conditions at: KMYV (MARYSVILLE , CA, US) observed 1424 UTC 04 December 2019
Temperature: 10.0°C (50°F)
Dewpoint: 9.4°C (49°F) [RH = 96%]
Pressure (altimeter): 29.89 inches Hg (1012.3 mb)
Winds: from the N (350 degrees) at 6 MPH (5 knots; 2.6 m/s)
Visibility: 3 miles ( 5 km)
Ceiling: 7000 feet AGL
Clouds: few clouds at 300 feet AGL
scattered clouds at 1700 feet AGL
overcast cloud deck at 7000 feet AGL
Weather: -RA BR  (light rain, mist)
SOME DATA ABOVE MAY BE INACCURATE!!!
"$" is an indication the sensor requires maintenance

METAR text: KMYV 041413Z AUTO 34004KT 2SM -RA BR SCT002 OVC075 10/09 A2990 RMK AO2 P0000 T01000094 $
Conditions at: KMYV (MARYSVILLE , CA, US) observed 1413 UTC 04 December 2019
Temperature: 10.0°C (50°F)
Dewpoint: 9.4°C (49°F) [RH = 96%]
Pressure (altimeter): 29.90 inches Hg (1012.6 mb)
Winds: from the NNW (340 degrees) at 5 MPH (4 knots; 2.1 m/s)
Visibility: 2.00 miles (3.22 km)
Ceiling: 7500 feet AGL
Clouds: scattered clouds at 200 feet AGL
overcast cloud deck at 7500 feet AGL
Weather: -RA BR  (light rain, mist)
SOME DATA ABOVE MAY BE INACCURATE!!!
"$" is an indication the sensor requires maintenance

METAR text: KMYV 041404Z AUTO 34005KT 1 3/4SM -RA BR BKN002 BKN070 OVC085 10/09 A2990 RMK AO2 P0000 T01000094 $
Conditions at: KMYV (MARYSVILLE , CA, US) observed 1404 UTC 04 December 2019
Temperature: 10.0°C (50°F)
Dewpoint: 9.4°C (49°F) [RH = 96%]
Pressure (altimeter): 29.90 inches Hg (1012.6 mb)
Winds: from the NNW (340 degrees) at 6 MPH (5 knots; 2.6 m/s)
Visibility: 1.75 miles (2.82 km)
Ceiling: 200 feet AGL
Clouds: broken clouds at 200 feet AGL
broken clouds at 7000 feet AGL
overcast cloud deck at 8500 feet AGL
Weather: -RA BR  (light rain, mist)
SOME DATA ABOVE MAY BE INACCURATE!!!
"$" is an indication the sensor requires maintenance

METAR text: KMYV 041353Z AUTO 32004KT 3SM -RA BR BKN002 OVC085 10/09 A2990 RMK AO2 RAE06B36 SLP129 P0000 T01000094 $
Conditions at: KMYV (MARYSVILLE , CA, US) observed 1353 UTC 04 December 2019
Temperature: 10.0°C (50°F)
Dewpoint: 9.4°C (49°F) [RH = 96%]
Pressure (altimeter): 29.90 inches Hg (1012.6 mb)
[Sea-level pressure: 1012.9 mb]
Winds: from the NW (320 degrees) at 5 MPH (4 knots; 2.1 m/s)
Visibility: 3 miles ( 5 km)
Ceiling: 200 feet AGL
Clouds: broken clouds at 200 feet AGL
overcast cloud deck at 8500 feet AGL
Weather: -RA BR  (light rain, mist)
SOME DATA ABOVE MAY BE INACCURATE!!!
"$" is an indication the sensor requires maintenance

METAR text: KMYV 041346Z AUTO 33004KT 3SM -RA BR BKN002 OVC085 10/09 A2990 RMK AO2 RAE06B36 P0000 T01000094 $
Conditions at: KMYV (MARYSVILLE , CA, US) observed 1346 UTC 04 December 2019
Temperature: 10.0°C (50°F)
Dewpoint: 9.4°C (49°F) [RH = 96%]
Pressure (altimeter): 29.90 inches Hg (1012.6 mb)
Winds: from the NNW (330 degrees) at 5 MPH (4 knots; 2.1 m/s)
Visibility: 3 miles ( 5 km)
Ceiling: 200 feet AGL
Clouds: broken clouds at 200 feet AGL
overcast cloud deck at 8500 feet AGL
Weather: -RA BR  (light rain, mist)
SOME DATA ABOVE MAY BE INACCURATE!!!
"$" is an indication the sensor requires maintenance

METAR text: KMYV 041332Z AUTO 31003KT 1 3/4SM BR OVC003 10/09 A2991 RMK AO2 RAE06 P0000 T01000094 PWINO $
Conditions at: KMYV (MARYSVILLE , CA, US) observed 1332 UTC 04 December 2019
Temperature: 10.0°C (50°F)
Dewpoint: 9.4°C (49°F) [RH = 96%]
Pressure (altimeter): 29.91 inches Hg (1013.0 mb)
Winds: from the NW (310 degrees) at 3 MPH (3 knots; 1.5 m/s)
Visibility: 1.75 miles (2.82 km)
Ceiling: 300 feet AGL
Clouds: overcast cloud deck at 300 feet AGL
Weather: BR  (mist)
SOME DATA ABOVE MAY BE INACCURATE!!!
"$" is an indication the sensor requires maintenance